Time;durP1;ratioP1;P1;durP2;ratioP2;P2;SDS_P1;SDS_P2;PMS_P1;PMS_P2;Temp;Humidity;BMP_temperature;BMP_pressure;BME280_temperature;BME280_humidity;BME280_pressure;Samples;Min_cycle;Max_cycle;Signal;HPM_P1;HPM_P2
2023/03/10 00:00:08;;;;;;;50.60;23.05;;;1.60;99.90;;;;;;5049733;28;20607;-63
2023/03/10 00:02:34;;;;;;;55.70;23.42;;;1.60;99.90;;;;;;5028145;28;20563;-63
2023/03/10 00:05:01;;;;;;;51.45;22.50;;;1.60;99.90;;;;;;5044441;28;20121;-63
2023/03/10 00:07:26;;;;;;;52.47;23.88;;;1.60;99.90;;;;;;5032589;28;20029;-63
2023/03/10 00:09:52;;;;;;;47.88;21.58;;;1.50;99.90;;;;;;5029863;28;20474;-63
2023/03/10 00:12:17;;;;;;;57.83;25.10;;;1.50;99.90;;;;;;5047142;28;20033;-63
2023/03/10 00:14:43;;;;;;;53.83;22.85;;;1.50;99.90;;;;;;5030495;28;20401;-63
2023/03/10 00:17:08;;;;;;;52.42;21.48;;;1.50;99.90;;;;;;5046774;28;20033;-63
2023/03/10 00:19:34;;;;;;;59.30;25.33;;;1.50;99.90;;;;;;5029645;28;20100;-63
2023/03/10 00:22:01;;;;;;;52.00;21.98;;;1.50;99.90;;;;;;5031627;28;20095;-63
2023/03/10 00:24:26;;;;;;;51.47;22.30;;;1.50;99.90;;;;;;5046072;28;20044;-64
2023/03/10 00:26:52;;;;;;;45.83;21.17;;;1.50;99.90;;;;;;5031872;28;20452;-63
2023/03/10 00:29:17;;;;;;;53.33;21.42;;;1.50;99.90;;;;;;5049506;28;20029;-63
2023/03/10 00:31:43;;;;;;;44.92;20.60;;;1.60;99.90;;;;;;5026283;28;20045;-63
2023/03/10 00:34:10;;;;;;;51.20;23.20;;;1.60;99.90;;;;;;5043738;28;20033;-63
2023/03/10 00:36:36;;;;;;;56.80;24.52;;;1.50;99.90;;;;;;5045803;28;20036;-62
2023/03/10 00:39:02;;;;;;;56.72;25.13;;;1.50;99.90;;;;;;5039492;28;20029;-63
2023/03/10 00:41:30;;;;;;;55.60;23.55;;;1.50;99.90;;;;;;5029302;28;20033;-63
2023/03/10 00:43:56;;;;;;;62.13;26.42;;;1.40;99.90;;;;;;5028651;28;20467;-64
2023/03/10 00:46:23;;;;;;;59.45;25.60;;;1.40;99.90;;;;;;5048785;28;20542;-63
2023/03/10 00:48:49;;;;;;;61.75;25.35;;;1.50;99.90;;;;;;5027855;28;20029;-63
2023/03/10 00:51:15;;;;;;;56.28;25.17;;;1.40;99.90;;;;;;5048659;28;20029;-62
2023/03/10 00:53:41;;;;;;;61.40;24.60;;;1.40;99.90;;;;;;5028017;28;20497;-62
2023/03/10 00:56:17;;;;;;;56.20;22.80;;;1.30;99.90;;;;;;5048358;28;20087;-63
2023/03/10 00:58:44;;;;;;;57.33;23.98;;;1.40;99.90;;;;;;5028876;28;20025;-63
2023/03/10 01:01:18;;;;;;;53.58;22.90;;;1.40;99.90;;;;;;5049005;28;20060;-62
2023/03/10 01:03:44;;;;;;;50.90;23.13;;;1.40;99.90;;;;;;5018997;28;20132;-63
2023/03/10 01:06:10;;;;;;;43.15;19.58;;;1.40;99.90;;;;;;5032601;28;20030;-62
2023/03/10 01:08:36;;;;;;;51.13;21.70;;;1.50;99.90;;;;;;5046288;28;20382;-61
2023/03/10 01:11:01;;;;;;;55.10;24.00;;;1.40;99.90;;;;;;5049204;28;20021;-61
2023/03/10 01:13:27;;;;;;;58.45;23.40;;;1.40;99.90;;;;;;5031603;28;20112;-61
2023/03/10 01:15:53;;;;;;;52.55;22.95;;;1.40;99.90;;;;;;5048976;28;20036;-63
2023/03/10 01:18:20;;;;;;;52.83;23.00;;;1.40;99.90;;;;;;5031889;28;20079;-64
2023/03/10 01:20:45;;;;;;;56.17;23.58;;;1.40;99.90;;;;;;5045710;28;20035;-63
2023/03/10 01:23:16;;;;;;;56.15;23.70;;;1.40;99.90;;;;;;5048783;28;20107;-64
2023/03/10 01:25:41;;;;;;;55.00;24.50;;;1.40;99.90;;;;;;5030049;28;20544;-64
2023/03/10 01:28:08;;;;;;;58.63;25.52;;;1.40;99.90;;;;;;5046102;28;20031;-63
2023/03/10 01:30:33;;;;;;;47.63;22.45;;;1.30;99.90;;;;;;5031506;28;20114;-63
2023/03/10 01:32:59;;;;;;;53.40;22.25;;;1.40;99.90;;;;;;5032462;28;20405;-63
2023/03/10 01:35:24;;;;;;;57.47;23.15;;;1.40;99.90;;;;;;5046492;28;20025;-63
2023/03/10 01:37:50;;;;;;;53.67;23.67;;;1.30;99.90;;;;;;5044534;28;20033;-62
2023/03/10 01:40:17;;;;;;;49.78;22.05;;;1.30;99.90;;;;;;5046571;28;20033;-63
2023/03/10 01:42:46;;;;;;;52.50;21.38;;;1.30;99.90;;;;;;5033212;28;20107;-62
2023/03/10 01:45:14;;;;;;;63.10;23.08;;;1.30;99.90;;;;;;5037525;28;20120;-62
2023/03/10 01:47:41;;;;;;;47.53;21.75;;;1.30;99.90;;;;;;5039047;28;20107;-63
2023/03/10 01:50:12;;;;;;;46.40;21.05;;;1.30;99.90;;;;;;5036736;28;20286;-62
2023/03/10 01:52:39;;;;;;;46.58;20.98;;;1.30;99.90;;;;;;5028649;28;20036;-62
2023/03/10 01:55:10;;;;;;;50.83;22.77;;;1.30;99.90;;;;;;5038505;28;20056;-62
2023/03/10 01:57:41;;;;;;;44.42;20.73;;;1.30;99.90;;;;;;5008897;28;20563;-62
2023/03/10 02:00:11;;;;;;;44.90;20.30;;;1.30;99.90;;;;;;5017773;28;20060;-63
2023/03/10 02:02:41;;;;;;;46.67;20.70;;;1.30;99.90;;;;;;5046287;28;20049;-61
2023/03/10 02:05:07;;;;;;;41.63;19.27;;;1.30;99.90;;;;;;5015544;28;20041;-67
2023/03/10 02:07:34;;;;;;;42.13;18.88;;;1.30;99.90;;;;;;5042605;28;20124;-66
2023/03/10 02:10:01;;;;;;;39.97;18.55;;;1.30;99.90;;;;;;5048139;28;20052;-66
2023/03/10 02:12:26;;;;;;;38.63;17.38;;;1.30;99.90;;;;;;5028048;28;20166;-67
2023/03/10 02:14:52;;;;;;;38.20;18.17;;;1.30;99.90;;;;;;5052152;28;20489;-58
2023/03/10 02:17:21;;;;;;;36.53;16.83;;;1.30;99.90;;;;;;5030950;28;20116;-59
2023/03/10 02:20:08;;;;;;;38.92;18.08;;;1.30;99.90;;;;;;5032214;28;20651;-60
2023/03/10 02:22:33;;;;;;;;;;;1.30;99.90;;;;;;5018590;28;20028;-59
2023/03/10 02:25:27;;;;;;;31.23;14.80;;;1.30;99.90;;;;;;5052041;28;19913;-58
2023/03/10 02:27:52;;;;;;;29.73;14.80;;;1.30;99.90;;;;;;5037159;28;20021;-60
2023/03/10 02:30:23;;;;;;;30.67;13.95;;;1.30;99.90;;;;;;5048467;28;20440;-59
2023/03/10 02:32:56;;;;;;;33.47;17.17;;;1.30;99.90;;;;;;5035945;28;20025;-59
2023/03/10 02:35:22;;;;;;;32.75;14.32;;;1.30;99.90;;;;;;5051838;28;20025;-60
2023/03/10 02:37:49;;;;;;;32.60;15.23;;;1.30;99.90;;;;;;5035981;28;20032;-58
2023/03/10 02:40:24;;;;;;;35.65;16.75;;;1.40;99.90;;;;;;5052027;28;20358;-59
2023/03/10 02:42:50;;;;;;;33.45;15.88;;;1.40;99.90;;;;;;5035906;28;20489;-59
2023/03/10 02:45:16;;;;;;;27.27;14.15;;;1.30;99.90;;;;;;5051703;28;20083;-60
2023/03/10 02:47:41;;;;;;;28.38;12.48;;;1.30;99.90;;;;;;5029019;28;20029;-59
2023/03/10 02:50:09;;;;;;;29.38;14.60;;;1.40;99.90;;;;;;5030374;28;20030;-59
2023/03/10 02:52:43;;;;;;;31.08;16.52;;;1.30;99.90;;;;;;5049174;28;20505;-59
2023/03/10 02:55:14;;;;;;;28.70;13.82;;;1.30;99.90;;;;;;5051476;28;20511;-59
2023/03/10 02:57:40;;;;;;;29.05;13.68;;;1.30;99.90;;;;;;5034299;28;20500;-59
2023/03/10 03:00:07;;;;;;;29.23;14.80;;;1.30;99.90;;;;;;5051198;28;20036;-58
2023/03/10 03:02:33;;;;;;;28.65;14.07;;;1.40;99.90;;;;;;5033586;28;20021;-58
2023/03/10 03:04:58;;;;;;;37.70;15.13;;;1.30;99.90;;;;;;5047450;28;20045;-59
2023/03/10 03:07:24;;;;;;;30.23;15.63;;;1.30;99.90;;;;;;5028385;28;20064;-60
2023/03/10 03:09:49;;;;;;;29.58;14.48;;;1.20;99.90;;;;;;5051257;28;20507;-59
2023/03/10 03:12:15;;;;;;;29.85;14.10;;;1.20;99.90;;;;;;5029641;28;20029;-60
2023/03/10 03:14:40;;;;;;;26.70;13.57;;;1.20;99.90;;;;;;5051199;28;20624;-59
2023/03/10 03:17:06;;;;;;;26.42;13.40;;;1.20;99.90;;;;;;5031558;28;20045;-60
2023/03/10 03:19:31;;;;;;;31.67;15.23;;;1.20;99.90;;;;;;5031273;28;20064;-60
2023/03/10 03:21:57;;;;;;;29.02;15.35;;;1.20;99.90;;;;;;5050276;28;20422;-60
2023/03/10 03:24:22;;;;;;;30.92;14.43;;;1.20;99.90;;;;;;5029537;28;20025;-59
2023/03/10 03:26:48;;;;;;;27.02;13.68;;;1.10;99.90;;;;;;5050299;28;20029;-60
2023/03/10 03:29:14;;;;;;;30.00;14.13;;;1.10;99.90;;;;;;5029636;28;20033;-60
2023/03/10 03:31:39;;;;;;;27.58;13.65;;;1.10;99.90;;;;;;5050151;28;20714;-60
2023/03/10 03:34:06;;;;;;;25.67;12.38;;;1.20;99.90;;;;;;5029442;28;20036;-59
2023/03/10 03:36:31;;;;;;;27.98;14.23;;;1.20;99.90;;;;;;5050356;28;20029;-59
2023/03/10 03:38:57;;;;;;;24.95;12.90;;;1.20;99.90;;;;;;5029580;28;20025;-60
2023/03/10 03:41:22;;;;;;;27.20;12.95;;;1.20;99.90;;;;;;5049932;28;20056;-65
2023/03/10 03:43:48;;;;;;;24.70;13.13;;;1.20;99.90;;;;;;5029474;28;20033;-65
2023/03/10 03:46:13;;;;;;;25.05;12.32;;;1.20;99.90;;;;;;5049928;28;20072;-66
2023/03/10 03:48:39;;;;;;;23.45;12.85;;;1.20;99.90;;;;;;5029533;28;20588;-66
2023/03/10 03:51:04;;;;;;;26.80;13.88;;;1.10;99.90;;;;;;5049525;28;20032;-68
2023/03/10 03:53:32;;;;;;;18.95;10.65;;;1.10;99.90;;;;;;5029395;28;20503;-65
2023/03/10 03:55:57;;;;;;;21.42;11.60;;;1.10;99.90;;;;;;5050017;28;20040;-65
2023/03/10 03:58:23;;;;;;;23.67;12.57;;;1.20;99.90;;;;;;5039588;28;20025;-66
2023/03/10 04:00:49;;;;;;;24.33;11.50;;;1.10;99.90;;;;;;5030946;28;20029;-65
2023/03/10 04:03:14;;;;;;;21.35;10.77;;;1.10;99.90;;;;;;5047702;28;20439;-65
2023/03/10 04:05:40;;;;;;;23.38;12.05;;;1.10;99.90;;;;;;5033388;28;20025;-65
2023/03/10 04:08:06;;;;;;;25.75;13.25;;;1.10;99.90;;;;;;5036651;28;20037;-65
2023/03/10 04:10:32;;;;;;;22.02;11.35;;;1.10;99.90;;;;;;5030699;28;20049;-66
2023/03/10 04:12:57;;;;;;;21.85;11.30;;;1.10;99.90;;;;;;5047374;28;20086;-66
2023/03/10 04:15:23;;;;;;;23.27;11.73;;;1.10;99.90;;;;;;5049880;28;20112;-66
2023/03/10 04:17:49;;;;;;;20.17;10.98;;;1.20;99.90;;;;;;5034354;28;20436;-67
2023/03/10 04:20:14;;;;;;;27.70;12.07;;;1.20;99.90;;;;;;5050069;28;20082;-66
2023/03/10 04:22:40;;;;;;;24.10;10.68;;;1.10;99.90;;;;;;5032992;28;20029;-67
2023/03/10 04:25:07;;;;;;;24.50;11.30;;;1.20;99.90;;;;;;5049778;28;20028;-66
2023/03/10 04:27:33;;;;;;;22.63;10.20;;;1.10;99.90;;;;;;5032089;28;20029;-66
2023/03/10 04:29:59;;;;;;;22.55;11.55;;;1.10;99.90;;;;;;5048700;28;20109;-66
2023/03/10 04:32:25;;;;;;;22.10;12.23;;;1.20;99.90;;;;;;5030165;28;20558;-66
2023/03/10 04:34:51;;;;;;;23.13;12.48;;;1.20;99.90;;;;;;5049756;28;20031;-67
2023/03/10 04:37:16;;;;;;;24.33;11.80;;;1.20;99.90;;;;;;5029210;28;20080;-65
2023/03/10 04:39:42;;;;;;;26.50;12.68;;;1.20;99.90;;;;;;5049524;28;20033;-67
2023/03/10 04:42:08;;;;;;;20.75;11.07;;;1.20;99.90;;;;;;5028386;28;20479;-65
2023/03/10 04:44:33;;;;;;;25.42;11.73;;;1.20;99.90;;;;;;5047616;28;20033;-68
2023/03/10 04:46:59;;;;;;;23.38;11.40;;;1.20;99.90;;;;;;5043450;28;20048;-66
2023/03/10 04:49:26;;;;;;;25.73;12.02;;;1.20;99.90;;;;;;5029129;28;20025;-66
2023/03/10 04:51:51;;;;;;;27.33;11.63;;;1.20;99.90;;;;;;5029064;28;20021;-66
2023/03/10 04:54:17;;;;;;;24.10;11.23;;;1.30;99.90;;;;;;5049248;28;20032;-66
2023/03/10 04:56:42;;;;;;;28.25;13.70;;;1.30;99.90;;;;;;5028234;28;20026;-66
2023/03/10 04:59:08;;;;;;;22.73;11.05;;;1.30;99.90;;;;;;5048955;28;20025;-66
2023/03/10 05:01:33;;;;;;;23.35;12.13;;;1.30;99.90;;;;;;5029887;28;20048;-66
2023/03/10 05:04:00;;;;;;;24.17;11.80;;;1.40;99.90;;;;;;5046511;28;20025;-66
2023/03/10 05:06:26;;;;;;;23.98;11.32;;;1.30;99.90;;;;;;5022905;28;20104;-66
2023/03/10 05:08:51;;;;;;;21.77;9.93;;;1.40;99.90;;;;;;5028216;28;20112;-66
2023/03/10 05:11:17;;;;;;;24.35;11.70;;;1.40;99.90;;;;;;5047184;28;20106;-66
2023/03/10 05:13:43;;;;;;;20.92;10.85;;;1.50;99.90;;;;;;5027488;28;20021;-66
2023/03/10 05:16:17;;;;;;;24.13;11.85;;;1.40;99.90;;;;;;5048281;28;20098;-66
2023/03/10 05:18:43;;;;;;;26.05;12.30;;;1.50;99.90;;;;;;5022083;28;20091;-67
2023/03/10 05:21:09;;;;;;;26.63;13.48;;;1.40;99.90;;;;;;5048056;28;20037;-67
2023/03/10 05:23:34;;;;;;;26.45;12.13;;;1.40;99.90;;;;;;5036818;28;20112;-67
2023/03/10 05:26:04;;;;;;;21.17;12.32;;;1.40;99.90;;;;;;5029128;28;20121;-66
2023/03/10 05:28:30;;;;;;;23.85;11.43;;;1.40;99.90;;;;;;5046171;28;20025;-67
2023/03/10 05:30:55;;;;;;;27.67;13.05;;;1.40;99.90;;;;;;5030715;28;20041;-66
2023/03/10 05:33:21;;;;;;;22.20;11.63;;;1.50;99.90;;;;;;5019886;28;20037;-65
2023/03/10 05:35:47;;;;;;;24.55;11.50;;;1.50;99.90;;;;;;5030291;28;20033;-65
2023/03/10 05:38:12;;;;;;;23.00;10.65;;;1.50;99.90;;;;;;5044961;28;20541;-66
2023/03/10 05:40:39;;;;;;;21.00;10.32;;;1.50;99.90;;;;;;5043604;28;20111;-65
2023/03/10 05:43:05;;;;;;;24.10;11.07;;;1.50;99.90;;;;;;5041171;28;20022;-65
2023/03/10 05:45:30;;;;;;;25.17;10.98;;;1.50;99.90;;;;;;5036402;28;20045;-66
2023/03/10 05:47:56;;;;;;;19.30;10.50;;;1.50;99.90;;;;;;5028292;28;20037;-66
2023/03/10 05:50:21;;;;;;;20.25;10.55;;;1.50;99.90;;;;;;5033058;28;20052;-66
2023/03/10 05:52:47;;;;;;;21.08;10.05;;;1.50;99.90;;;;;;5027307;28;20065;-66
2023/03/10 05:55:16;;;;;;;20.23;10.98;;;1.50;99.90;;;;;;5026202;28;20022;-66
2023/03/10 05:57:42;;;;;;;20.92;10.30;;;1.50;99.90;;;;;;5038042;28;20039;-65
2023/03/10 06:00:09;;;;;;;18.52;10.07;;;1.50;99.90;;;;;;5027492;28;20037;-66
2023/03/10 06:02:37;;;;;;;24.95;11.75;;;1.50;99.90;;;;;;5047806;28;20158;-66
2023/03/10 06:05:07;;;;;;;22.98;10.23;;;1.50;99.90;;;;;;5020210;28;20037;-66
2023/03/10 06:07:34;;;;;;;19.25;10.43;;;1.50;99.90;;;;;;5028098;28;20056;-66
2023/03/10 06:10:00;;;;;;;21.13;10.35;;;1.50;99.90;;;;;;5045463;28;20083;-66
2023/03/10 06:12:26;;;;;;;20.02;10.48;;;1.50;99.90;;;;;;5047603;28;20031;-66
2023/03/10 06:14:51;;;;;;;20.83;10.15;;;1.60;99.90;;;;;;5030802;28;20108;-57
2023/03/10 06:17:17;;;;;;;20.90;10.18;;;1.50;99.90;;;;;;5047853;28;20056;-57
2023/03/10 06:19:42;;;;;;;23.23;9.75;;;1.50;99.90;;;;;;5029455;28;20693;-58
2023/03/10 06:22:08;;;;;;;21.33;10.45;;;1.50;99.90;;;;;;5047820;28;20075;-57
2023/03/10 06:24:33;;;;;;;20.17;9.95;;;1.50;99.90;;;;;;5028300;28;20029;-57
2023/03/10 06:26:59;;;;;;;14.93;8.77;;;1.50;99.90;;;;;;5047805;28;20520;-57
2023/03/10 06:29:24;;;;;;;17.35;8.98;;;1.50;99.90;;;;;;5025461;28;20143;-55
2023/03/10 06:31:50;;;;;;;16.98;9.48;;;1.60;99.90;;;;;;5047476;28;20045;-56
2023/03/10 06:34:16;;;;;;;17.17;9.38;;;1.50;99.90;;;;;;5028272;28;20042;-57
2023/03/10 06:36:42;;;;;;;15.15;9.00;;;1.50;99.90;;;;;;5045155;28;20163;-55
2023/03/10 06:39:07;;;;;;;18.15;9.13;;;1.50;99.90;;;;;;5028025;28;20130;-56
2023/03/10 06:41:35;;;;;;;17.98;9.45;;;1.50;99.90;;;;;;5026648;28;20397;-57
2023/03/10 06:44:00;;;;;;;14.90;8.63;;;1.60;99.90;;;;;;5046910;28;20049;-57
2023/03/10 06:46:27;;;;;;;15.30;8.63;;;1.60;99.90;;;;;;5026178;28;20498;-57
2023/03/10 06:48:53;;;;;;;14.88;8.88;;;1.70;99.90;;;;;;5046818;28;20052;-57
2023/03/10 06:51:19;;;;;;;16.95;8.63;;;1.60;99.90;;;;;;5026376;28;20068;-57
2023/03/10 06:53:46;;;;;;;14.20;8.32;;;1.70;99.90;;;;;;5046565;28;20029;-57
2023/03/10 06:56:20;;;;;;;14.50;7.90;;;1.70;99.90;;;;;;5026113;28;20022;-57
2023/03/10 06:58:46;;;;;;;15.48;8.05;;;1.80;99.90;;;;;;5007696;28;20407;-58
2023/03/10 07:01:25;;;;;;;16.10;7.60;;;1.70;99.90;;;;;;5032687;28;20029;-56
2023/03/10 07:03:51;;;;;;;16.02;7.97;;;1.80;99.90;;;;;;5050865;28;20040;-57
2023/03/10 07:06:16;;;;;;;15.60;7.85;;;1.80;99.90;;;;;;5023350;28;20037;-57
2023/03/10 07:08:42;;;;;;;15.13;8.75;;;1.90;99.90;;;;;;5049972;28;20025;-58
2023/03/10 07:11:08;;;;;;;15.45;7.90;;;1.80;99.90;;;;;;5029933;28;20029;-57
2023/03/10 07:13:33;;;;;;;15.88;8.07;;;1.90;99.90;;;;;;5050618;28;20033;-57
2023/03/10 07:15:59;;;;;;;13.52;8.15;;;1.90;99.90;;;;;;5028563;28;20041;-55
2023/03/10 07:18:28;;;;;;;17.13;8.88;;;2.00;99.90;;;;;;5049859;28;20029;-58
2023/03/10 07:20:54;;;;;;;13.10;8.15;;;2.00;99.90;;;;;;5029333;28;20025;-58
2023/03/10 07:23:21;;;;;;;14.05;7.68;;;2.00;99.90;;;;;;5050239;28;20115;-57
2023/03/10 07:25:53;;;;;;;13.90;7.32;;;2.00;99.90;;;;;;5035194;28;20569;-56
2023/03/10 07:28:19;;;;;;;13.98;7.28;;;2.10;99.90;;;;;;5050648;28;20029;-55
2023/03/10 07:30:44;;;;;;;13.98;7.65;;;2.20;99.90;;;;;;5028996;28;20064;-56
2023/03/10 07:33:10;;;;;;;13.32;7.47;;;2.10;99.90;;;;;;5049968;28;20275;-55
2023/03/10 07:35:36;;;;;;;12.57;8.30;;;2.10;99.90;;;;;;5039779;28;20044;-57
2023/03/10 07:38:01;;;;;;;15.93;7.75;;;2.20;99.90;;;;;;5030845;28;20029;-55
2023/03/10 07:40:27;;;;;;;13.32;6.88;;;2.20;99.90;;;;;;5048025;28;20029;-55
2023/03/10 07:42:56;;;;;;;11.30;6.45;;;2.20;99.90;;;;;;5031193;28;20026;-55
2023/03/10 07:45:22;;;;;;;10.80;6.97;;;2.20;99.90;;;;;;5047729;28;20051;-56
2023/03/10 07:47:52;;;;;;;13.70;7.78;;;2.20;99.90;;;;;;5030695;28;20095;-58
2023/03/10 07:50:19;;;;;;;21.17;7.22;;;2.20;99.90;;;;;;5047775;28;20021;-57
2023/03/10 07:52:44;;;;;;;15.80;7.35;;;2.30;99.90;;;;;;5030466;28;20382;-57
2023/03/10 07:55:10;;;;;;;10.52;6.25;;;2.30;99.90;;;;;;5047531;28;20033;-57
2023/03/10 07:57:35;;;;;;;10.23;6.00;;;2.40;99.90;;;;;;5050174;28;20028;-56
2023/03/10 08:00:01;;;;;;;9.88;6.15;;;2.40;99.90;;;;;;5034234;28;20039;-55
2023/03/10 08:02:26;;;;;;;12.73;6.45;;;2.40;99.90;;;;;;5050079;28;20388;-56
2023/03/10 08:04:52;;;;;;;14.27;7.28;;;2.40;99.90;;;;;;5029679;28;20029;-58
2023/03/10 08:07:18;;;;;;;11.07;6.25;;;2.40;99.90;;;;;;5050269;28;20021;-55
2023/03/10 08:09:50;;;;;;;11.70;5.70;;;2.50;99.90;;;;;;5035180;28;20508;-56
2023/03/10 08:12:16;;;;;;;10.43;5.53;;;2.60;99.90;;;;;;5029202;28;20034;-57
2023/03/10 08:14:42;;;;;;;14.25;7.15;;;2.70;99.90;;;;;;5046585;28;20588;-56
2023/03/10 08:17:07;;;;;;;11.27;6.10;;;2.70;99.90;;;;;;5049910;28;20025;-56
2023/03/10 08:19:33;;;;;;;13.23;7.18;;;2.80;99.90;;;;;;5030241;28;20437;-57
2023/03/10 08:22:00;;;;;;;10.27;6.10;;;2.90;99.90;;;;;;5049932;28;20025;-54
2023/03/10 08:24:26;;;;;;;12.02;6.57;;;2.90;99.90;;;;;;5028926;28;20071;-57
2023/03/10 08:26:51;;;;;;;12.25;6.90;;;2.90;99.90;;;;;;5049851;28;20060;-56
2023/03/10 08:29:17;;;;;;;13.88;6.53;;;3.00;99.90;;;;;;5039570;28;20029;-56
2023/03/10 08:31:42;;;;;;;11.93;6.43;;;3.10;99.90;;;;;;5046862;28;20136;-56
2023/03/10 08:34:08;;;;;;;10.05;5.72;;;3.10;99.90;;;;;;5029744;28;20088;-56
2023/03/10 08:36:33;;;;;;;9.70;6.25;;;3.20;99.90;;;;;;5028298;28;20037;-56
2023/03/10 08:38:59;;;;;;;11.13;6.07;;;3.30;99.90;;;;;;5048386;28;20280;-55
2023/03/10 08:41:26;;;;;;;9.95;6.50;;;3.40;99.90;;;;;;5028035;28;20037;-53
2023/03/10 08:43:53;;;;;;;10.73;6.35;;;3.50;99.90;;;;;;5048527;28;20032;-56
2023/03/10 08:46:20;;;;;;;12.85;6.50;;;3.60;99.90;;;;;;5027802;28;20029;-55
2023/03/10 08:48:47;;;;;;;12.25;6.60;;;3.70;99.90;;;;;;5048569;28;20278;-55
2023/03/10 08:51:13;;;;;;;9.52;6.30;;;3.70;99.90;;;;;;5028051;28;20036;-56
2023/03/10 08:53:40;;;;;;;10.27;5.85;;;3.70;99.90;;;;;;5048255;28;20106;-55
2023/03/10 08:56:06;;;;;;;10.63;6.85;;;3.70;99.90;;;;;;5027635;28;20025;-55
2023/03/10 08:58:32;;;;;;;9.70;6.32;;;3.70;99.90;;;;;;5048263;28;20489;-54
2023/03/10 09:00:58;;;;;;;13.23;7.15;;;3.70;99.90;;;;;;5027337;28;20033;-54
2023/03/10 09:03:24;;;;;;;12.30;7.20;;;3.80;99.90;;;;;;5047770;28;20055;-54
2023/03/10 09:05:50;;;;;;;11.95;6.75;;;3.80;99.90;;;;;;5031963;28;20082;-55
2023/03/10 09:08:15;;;;;;;12.15;6.47;;;3.90;99.90;;;;;;5029373;28;20033;-55
2023/03/10 09:10:43;;;;;;;11.25;6.78;;;4.10;99.90;;;;;;5044352;28;20021;-54
2023/03/10 09:13:09;;;;;;;11.20;6.45;;;4.20;99.90;;;;;;5029132;28;20230;-56
2023/03/10 09:15:39;;;;;;;12.45;7.35;;;4.40;99.90;;;;;;5046141;28;20172;-56
2023/03/10 09:18:09;;;;;;;10.63;6.60;;;4.60;99.90;;;;;;5028794;28;20029;-55
2023/03/10 09:20:36;;;;;;;10.13;6.18;;;4.80;99.90;;;;;;5046583;28;20032;-54
2023/03/10 09:23:02;;;;;;;9.07;5.95;;;5.00;99.90;;;;;;5028889;28;20494;-56
2023/03/10 09:25:27;;;;;;;13.77;7.25;;;5.20;99.90;;;;;;5045821;28;20123;-57
2023/03/10 09:27:53;;;;;;;9.77;6.72;;;5.30;99.90;;;;;;5029033;28;20121;-57
2023/03/10 09:30:18;;;;;;;10.10;6.45;;;5.50;99.90;;;;;;5045519;28;20029;-57
2023/03/10 09:32:44;;;;;;;9.50;5.68;;;5.70;99.90;;;;;;5028754;28;20041;-56
2023/03/10 09:35:10;;;;;;;8.77;5.95;;;5.90;99.90;;;;;;5045733;28;20056;-56
2023/03/10 09:37:36;;;;;;;14.50;6.80;;;6.20;99.90;;;;;;5043699;28;20029;-56
2023/03/10 09:40:04;;;;;;;11.95;6.93;;;6.40;99.90;;;;;;5031960;28;20041;-58
2023/03/10 09:42:50;;;;;;;11.80;6.70;;;6.60;99.90;;;;;;5048277;28;20033;-69
2023/03/10 09:45:46;;;;;;;10.98;6.97;;;6.60;99.90;;;;;;5022236;28;20060;-73
2023/03/10 09:48:33;;;;;;;10.63;7.15;;;6.70;99.90;;;;;;5008651;28;20046;-73
2023/03/10 09:51:04;;;;;;;9.57;6.38;;;6.70;99.90;;;;;;5020092;28;20048;-73
2023/03/10 09:53:42;;;;;;;11.40;7.03;;;6.50;99.90;;;;;;5008695;28;20030;-73
2023/03/10 09:56:15;;;;;;;12.60;7.82;;;6.60;99.90;;;;;;5031176;28;20367;-73
2023/03/10 09:58:54;;;;;;;11.13;7.07;;;6.60;99.90;;;;;;5047624;28;20499;-73
2023/03/10 10:01:24;;;;;;;12.85;8.35;;;6.60;99.90;;;;;;5022969;28;20778;-73
2023/03/10 10:04:10;;;;;;;14.13;8.55;;;6.60;99.90;;;;;;5047655;28;20025;-73
2023/03/10 10:06:38;;;;;;;15.27;9.55;;;6.70;99.90;;;;;;5023669;28;20029;-71
2023/03/10 10:09:09;;;;;;;14.57;8.85;;;6.70;99.90;;;;;;5046982;28;20068;-73
2023/03/10 10:11:35;;;;;;;12.82;7.95;;;6.70;99.90;;;;;;5025133;28;20552;-74
2023/03/10 10:14:22;;;;;;;10.38;7.55;;;6.80;99.90;;;;;;5047114;28;20261;-73
2023/03/10 10:17:06;;;;;;;12.02;7.20;;;7.00;99.90;;;;;;5047888;28;20393;-55
2023/03/10 10:19:32;;;;;;;11.32;6.53;;;7.20;99.90;;;;;;5028246;28;20036;-57
2023/03/10 10:22:17;;;;;;;11.52;6.65;;;7.20;99.90;;;;;;5046681;28;20463;-57
2023/03/10 10:25:14;;;;;;;9.23;6.45;;;7.40;99.90;;;;;;5012401;28;20206;-58
2023/03/10 10:27:41;;;;;;;12.50;7.57;;;7.50;99.90;;;;;;5047614;28;20051;-57
2023/03/10 10:30:33;;;;;;;13.35;8.50;;;7.60;99.90;;;;;;5032404;28;20448;-58
2023/03/10 10:33:03;;;;;;;10.30;6.60;;;7.70;99.90;;;;;;5008057;28;20034;-57
2023/03/10 10:35:32;;;;;;;10.57;7.13;;;7.80;99.90;;;;;;5028154;28;20040;-57
2023/03/10 10:38:17;;;;;;;10.68;6.60;;;7.90;99.90;;;;;;5031686;28;20405;-57
2023/03/10 10:40:50;;;;;;;10.25;6.78;;;7.90;99.90;;;;;;5032646;28;20036;-57
2023/03/10 10:43:17;;;;;;;13.68;7.43;;;8.00;99.90;;;;;;5031866;28;20504;-58
2023/03/10 10:45:44;;;;;;;16.55;8.07;;;8.00;99.90;;;;;;5037401;28;20075;-57
2023/03/10 10:48:39;;;;;;;9.18;5.57;;;8.10;99.90;;;;;;5051069;28;20036;-58
2023/03/10 10:51:27;;;;;;;9.73;6.35;;;8.10;99.90;;;;;;5029802;28;20025;-56
2023/03/10 10:53:53;;;;;;;9.98;7.85;;;8.20;99.90;;;;;;5011685;28;20029;-58
2023/03/10 10:56:19;;;;;;;11.85;8.40;;;8.20;99.90;;;;;;5031821;28;20104;-57
2023/03/10 10:59:28;;;;;;;10.45;6.95;;;8.20;99.90;;;;;;5050278;28;20036;-58
2023/03/10 11:02:22;;;;;;;10.70;6.63;;;8.20;99.90;;;;;;5005322;28;20042;-57
2023/03/10 11:04:48;;;;;;;11.13;7.07;;;8.30;99.90;;;;;;5000707;28;20116;-54
2023/03/10 11:07:25;;;;;;;10.30;6.13;;;8.30;99.90;;;;;;5035771;28;20136;-57
2023/03/10 11:09:52;;;;;;;11.50;6.82;;;8.40;99.90;;;;;;5018296;28;20531;-58
2023/03/10 11:12:30;;;;;;;7.53;5.43;;;8.50;99.90;;;;;;5051110;28;20028;-58
2023/03/10 11:15:23;;;;;;;9.57;5.90;;;8.60;99.90;;;;;;5019739;28;20072;-57
2023/03/10 11:18:14;;;;;;;9.65;5.25;;;8.70;99.90;;;;;;5011289;28;20038;-57
2023/03/10 11:20:53;;;;;;;9.00;6.18;;;8.80;99.90;;;;;;5029933;28;20563;-56
2023/03/10 11:23:29;;;;;;;8.88;5.88;;;8.80;99.90;;;;;;5009917;28;20612;-58
2023/03/10 11:26:09;;;;;;;10.20;6.85;;;8.90;99.90;;;;;;5022822;28;20038;-57
2023/03/10 11:28:57;;;;;;;9.88;6.45;;;9.00;99.90;;;;;;5011115;28;20543;-58
2023/03/10 11:31:38;;;;;;;10.00;6.43;;;9.10;99.90;;;;;;5008576;28;20513;-58
2023/03/10 11:34:21;;;;;;;9.88;6.95;;;9.30;99.90;;;;;;5010759;28;20049;-57
2023/03/10 11:37:05;;;;;;;9.05;6.05;;;9.50;99.90;;;;;;5010768;28;20481;-58
2023/03/10 11:39:42;;;;;;;10.00;6.60;;;9.70;99.90;;;;;;5047370;28;20024;-58
2023/03/10 11:42:47;;;;;;;9.30;6.82;;;9.80;99.90;;;;;;5050610;28;20031;-58
2023/03/10 11:45:22;;;;;;;9.70;6.68;;;9.90;99.90;;;;;;5022724;28;20025;-58
2023/03/10 11:48:25;;;;;;;8.93;6.35;;;9.90;99.90;;;;;;5030557;28;20054;-58
2023/03/10 11:50:58;;;;;;;10.50;7.47;;;9.90;99.90;;;;;;5035600;28;20472;-58
2023/03/10 11:54:04;;;;;;;10.75;6.82;;;9.80;99.90;;;;;;5049843;28;20108;-57
2023/03/10 11:56:30;;;;;;;10.00;6.80;;;9.80;99.90;;;;;;5038464;28;20052;-58
2023/03/10 11:59:04;;;;;;;12.02;8.20;;;9.70;99.90;;;;;;5029994;28;20041;-57
2023/03/10 12:01:44;;;;;;;12.43;8.30;;;9.70;99.90;;;;;;5026924;28;20421;-58
2023/03/10 12:04:21;;;;;;;12.20;7.93;;;9.60;99.90;;;;;;5010507;28;20034;-58
2023/03/10 12:06:56;;;;;;;10.23;7.30;;;9.60;99.90;;;;;;5043456;28;20159;-57
2023/03/10 12:09:52;;;;;;;13.13;8.38;;;9.80;99.90;;;;;;5007483;28;20033;-56
2023/03/10 12:12:26;;;;;;;11.57;7.75;;;10.00;99.90;;;;;;5049811;28;20043;-58
2023/03/10 12:14:53;;;;;;;10.23;6.70;;;10.10;99.90;;;;;;5017431;28;20108;-57
2023/03/10 12:17:19;;;;;;;11.43;7.90;;;10.10;99.90;;;;;;5049712;28;20029;-54
2023/03/10 12:20:13;;;;;;;9.30;7.05;;;10.20;99.90;;;;;;5031562;28;20032;-58
2023/03/10 12:22:41;;;;;;;11.40;7.25;;;10.10;99.90;;;;;;5049868;28;20249;-57
2023/03/10 12:25:26;;;;;;;9.90;6.97;;;10.10;99.90;;;;;;5034471;28;20492;-57
2023/03/10 12:28:16;;;;;;;10.82;7.43;;;10.10;99.90;;;;;;5032260;28;20034;-57
2023/03/10 12:31:05;;;;;;;10.15;7.10;;;10.10;99.90;;;;;;5030009;28;20341;-57
2023/03/10 12:33:32;;;;;;;11.55;7.82;;;10.10;99.90;;;;;;5029849;28;20022;-57
2023/03/10 12:36:19;;;;;;;10.10;6.60;;;10.00;99.90;;;;;;5033737;28;20036;-57
2023/03/10 12:38:56;;;;;;;10.30;7.38;;;10.00;99.90;;;;;;5048463;28;20025;-57
2023/03/10 12:41:52;;;;;;;14.25;9.82;;;9.90;99.90;;;;;;5027523;28;20505;-57
2023/03/10 12:44:50;;;;;;;11.88;8.65;;;9.90;99.90;;;;;;5009664;28;20041;-57
2023/03/10 12:47:52;;;;;;;14.88;9.07;;;9.90;99.90;;;;;;5009688;28;20032;-58
2023/03/10 12:50:44;;;;;;;12.80;8.05;;;10.00;99.90;;;;;;5023863;28;20082;-58
2023/03/10 12:53:10;;;;;;;9.30;7.03;;;10.10;99.90;;;;;;5009442;28;20401;-57
2023/03/10 12:55:39;;;;;;;9.57;6.75;;;10.20;99.90;;;;;;5046101;28;20033;-58